Time;durP1;ratioP1;P1;durP2;ratioP2;P2;SDS_P1;SDS_P2;PMS_P1;PMS_P2;Temp;Humidity;BMP_temperature;BMP_pressure;BME280_temperature;BME280_humidity;BME280_pressure;Samples;Min_cycle;Max_cycle;Signal;HPM_P1;HPM_P2
2021/06/30 00:01:14;;;;;;;14.32;4.13;;;27.60;72.10;;;;;;5135520;27;20034;-63
2021/06/30 00:03:39;;;;;;;22.98;5.07;;;27.60;72.00;;;;;;5134995;27;20035;-65
2021/06/30 00:06:05;;;;;;;13.50;4.63;;;27.60;72.20;;;;;;5135316;27;20376;-66
2021/06/30 00:08:32;;;;;;;19.75;5.28;;;27.60;72.00;;;;;;5135359;27;20070;-66
2021/06/30 00:10:58;;;;;;;16.50;4.63;;;27.50;72.20;;;;;;5135412;27;20051;-64
2021/06/30 00:13:24;;;;;;;18.35;5.35;;;27.60;71.90;;;;;;5135149;27;20027;-66
2021/06/30 00:15:51;;;;;;;18.67;4.95;;;27.60;72.00;;;;;;5134997;27;20023;-66
2021/06/30 00:18:19;;;;;;;16.67;4.90;;;27.60;72.10;;;;;;5134867;27;20113;-66
2021/06/30 00:20:44;;;;;;;16.92;4.97;;;27.60;72.10;;;;;;5135261;27;20479;-65
2021/06/30 00:23:10;;;;;;;20.02;4.70;;;27.60;72.10;;;;;;5135091;27;20023;-66
2021/06/30 00:25:36;;;;;;;21.05;5.47;;;27.60;72.00;;;;;;5135018;27;20019;-64
2021/06/30 00:28:02;;;;;;;16.90;5.20;;;27.50;72.00;;;;;;5134871;27;20040;-65
2021/06/30 00:30:28;;;;;;;18.00;4.82;;;27.40;72.30;;;;;;5134945;27;20050;-66
2021/06/30 00:32:54;;;;;;;19.35;5.47;;;27.40;71.90;;;;;;5134852;27;20019;-65
2021/06/30 00:35:20;;;;;;;19.80;4.25;;;27.40;72.00;;;;;;5134687;27;20019;-65
2021/06/30 00:37:46;;;;;;;17.77;4.70;;;27.40;72.00;;;;;;5133352;27;20095;-65
2021/06/30 00:40:12;;;;;;;17.77;4.40;;;27.30;72.00;;;;;;5133438;27;20020;-68
2021/06/30 00:42:39;;;;;;;15.77;4.97;;;27.30;71.80;;;;;;5134899;27;20053;-66
2021/06/30 00:45:06;;;;;;;21.23;4.93;;;27.30;72.20;;;;;;5134455;27;20023;-67
2021/06/30 00:47:33;;;;;;;17.13;4.28;;;27.30;72.40;;;;;;5134545;27;20467;-67
2021/06/30 00:49:59;;;;;;;19.60;4.97;;;27.30;72.10;;;;;;5134549;27;20396;-66
2021/06/30 00:52:24;;;;;;;22.52;4.78;;;27.30;72.00;;;;;;5134467;27;20464;-67
2021/06/30 00:54:50;;;;;;;16.13;4.22;;;27.30;71.80;;;;;;5134484;27;20030;-65
2021/06/30 00:57:18;;;;;;;14.38;4.75;;;27.30;71.90;;;;;;5134504;27;20055;-66
2021/06/30 00:59:44;;;;;;;15.00;4.68;;;27.10;72.10;;;;;;5133176;27;20106;-66
2021/06/30 01:02:10;;;;;;;19.40;4.05;;;27.20;71.90;;;;;;5134554;27;20057;-65
2021/06/30 01:04:36;;;;;;;12.45;3.90;;;27.20;71.70;;;;;;5134435;27;20475;-66
2021/06/30 01:07:02;;;;;;;14.57;3.75;;;27.10;71.30;;;;;;5133998;27;20113;-66
2021/06/30 01:09:29;;;;;;;16.35;4.38;;;27.10;70.80;;;;;;5132492;27;20065;-65
2021/06/30 01:11:59;;;;;;;20.05;3.92;;;27.10;70.90;;;;;;5134314;27;20376;-65
2021/06/30 01:14:31;;;;;;;12.27;4.07;;;27.10;70.70;;;;;;5134448;27;20372;-65
2021/06/30 01:16:58;;;;;;;10.27;3.80;;;27.00;70.50;;;;;;5133818;27;20464;-67
2021/06/30 01:19:24;;;;;;;17.73;4.78;;;27.00;70.10;;;;;;5133852;28;20097;-66
2021/06/30 01:21:51;;;;;;;11.43;3.95;;;27.00;70.30;;;;;;5134175;28;20031;-66
2021/06/30 01:24:18;;;;;;;16.08;4.07;;;27.00;70.20;;;;;;5134163;28;20025;-66
2021/06/30 01:26:45;;;;;;;11.77;3.67;;;27.00;70.20;;;;;;5133974;28;20065;-65
2021/06/30 01:29:11;;;;;;;12.63;3.22;;;27.00;69.90;;;;;;5133965;27;20368;-65
2021/06/30 01:31:37;;;;;;;14.07;3.85;;;27.00;70.00;;;;;;5133993;28;20110;-66
2021/06/30 01:34:03;;;;;;;14.23;3.97;;;26.90;69.70;;;;;;5133896;28;20088;-64
2021/06/30 01:36:29;;;;;;;15.57;3.83;;;26.90;69.80;;;;;;5133779;28;20037;-63
2021/06/30 01:38:55;;;;;;;15.20;3.75;;;27.00;69.60;;;;;;5134278;27;20414;-64
2021/06/30 01:41:21;;;;;;;12.07;4.22;;;26.90;69.00;;;;;;5132541;28;20483;-64
2021/06/30 01:43:47;;;;;;;18.00;4.15;;;26.90;68.90;;;;;;5133857;28;20050;-64
2021/06/30 01:46:13;;;;;;;14.43;3.42;;;26.90;68.80;;;;;;5133954;28;20158;-64
2021/06/30 01:48:46;;;;;;;16.27;4.00;;;26.80;68.60;;;;;;5133833;28;20476;-65
2021/06/30 01:51:12;;;;;;;;;;;26.80;69.10;;;;;;5134289;28;20034;-65
2021/06/30 01:53:37;;;;;;;11.70;3.65;;;26.80;69.00;;;;;;5134134;28;19908;-65
2021/06/30 01:56:03;;;;;;;18.10;3.85;;;26.80;68.40;;;;;;5133604;28;20019;-64
2021/06/30 01:58:29;;;;;;;16.10;4.43;;;26.80;68.60;;;;;;5134256;28;20101;-65
2021/06/30 02:00:55;;;;;;;14.23;5.15;;;26.70;68.50;;;;;;5134415;28;20019;-64
2021/06/30 02:03:21;;;;;;;17.60;4.55;;;26.70;68.80;;;;;;5132917;28;20023;-63
2021/06/30 02:05:47;;;;;;;18.70;4.53;;;26.70;68.90;;;;;;5133608;28;20026;-64
2021/06/30 02:08:13;;;;;;;12.20;4.18;;;26.70;69.10;;;;;;5133747;27;20039;-64
2021/06/30 02:10:40;;;;;;;11.38;4.20;;;26.70;69.40;;;;;;5133634;28;20015;-65
2021/06/30 02:13:06;;;;;;;14.23;4.53;;;26.60;69.30;;;;;;5133786;28;20102;-64
2021/06/30 02:15:34;;;;;;;13.60;4.18;;;26.60;69.40;;;;;;5133507;28;20094;-64
2021/06/30 02:18:01;;;;;;;15.68;4.18;;;26.60;69.80;;;;;;5133556;28;20407;-65
2021/06/30 02:20:28;;;;;;;17.33;4.40;;;26.60;69.70;;;;;;5132315;28;20475;-64
2021/06/30 02:22:54;;;;;;;15.02;4.50;;;26.60;69.60;;;;;;5133376;28;20029;-64
2021/06/30 02:25:24;;;;;;;12.13;3.67;;;26.60;69.10;;;;;;5133876;27;20065;-63
2021/06/30 02:27:51;;;;;;;15.75;4.40;;;26.50;69.00;;;;;;5137545;27;20027;-64
2021/06/30 02:30:22;;;;;;;14.32;3.97;;;26.50;68.80;;;;;;5137085;27;20031;-63
2021/06/30 02:32:48;;;;;;;14.10;4.43;;;26.50;68.80;;;;;;5137097;27;20507;-65
2021/06/30 02:35:18;;;;;;;16.92;3.70;;;26.50;68.60;;;;;;5137514;27;20058;-65
2021/06/30 02:37:45;;;;;;;16.13;4.38;;;26.50;68.90;;;;;;5138183;27;20056;-63
2021/06/30 02:40:14;;;;;;;12.65;3.90;;;26.50;68.80;;;;;;5137065;27;20094;-67
2021/06/30 02:42:40;;;;;;;17.77;4.50;;;26.60;69.20;;;;;;5136952;27;20148;-68
2021/06/30 02:45:08;;;;;;;14.23;3.90;;;26.60;69.20;;;;;;5136921;27;20023;-65
2021/06/30 02:47:35;;;;;;;19.17;4.15;;;26.60;68.50;;;;;;5136794;27;20020;-65
2021/06/30 02:50:01;;;;;;;14.55;4.60;;;26.60;68.40;;;;;;5136981;27;20122;-65
2021/06/30 02:52:27;;;;;;;13.45;4.20;;;26.70;68.30;;;;;;5136679;27;20496;-66
2021/06/30 02:54:52;;;;;;;11.30;3.97;;;26.70;68.30;;;;;;5136681;27;20019;-66
2021/06/30 02:57:18;;;;;;;16.50;4.72;;;26.70;68.40;;;;;;5136895;27;20065;-66
2021/06/30 02:59:44;;;;;;;17.92;4.82;;;26.70;68.40;;;;;;5136737;27;20015;-66
2021/06/30 03:02:09;;;;;;;12.35;4.25;;;26.70;68.50;;;;;;5136693;27;20038;-66
2021/06/30 03:04:35;;;;;;;16.75;4.70;;;26.70;68.80;;;;;;5136536;27;20395;-63
2021/06/30 03:07:02;;;;;;;18.25;5.57;;;26.70;68.80;;;;;;5136231;27;20027;-66
2021/06/30 03:09:27;;;;;;;14.50;5.00;;;26.60;69.70;;;;;;5136456;27;20031;-65
2021/06/30 03:11:53;;;;;;;17.85;5.20;;;26.40;70.00;;;;;;5136413;27;20460;-64
2021/06/30 03:14:20;;;;;;;21.30;5.72;;;26.40;70.30;;;;;;5135084;27;20023;-65
2021/06/30 03:16:47;;;;;;;17.77;5.38;;;26.40;70.60;;;;;;5136086;27;20063;-65
2021/06/30 03:19:13;;;;;;;19.50;5.15;;;26.40;70.80;;;;;;5136022;27;20548;-65
2021/06/30 03:21:38;;;;;;;15.98;4.40;;;26.50;70.80;;;;;;5136722;27;20051;-65
2021/06/30 03:24:04;;;;;;;17.17;4.97;;;26.40;70.80;;;;;;5136002;27;20019;-63
2021/06/30 03:26:30;;;;;;;20.17;5.20;;;26.40;70.80;;;;;;5136133;27;20015;-63
2021/06/30 03:29:00;;;;;;;18.98;4.95;;;26.40;71.00;;;;;;5136022;27;20447;-65
2021/06/30 03:31:26;;;;;;;18.73;5.65;;;26.30;71.20;;;;;;5135812;27;20031;-63
2021/06/30 03:33:51;;;;;;;21.98;4.65;;;26.40;71.00;;;;;;5136077;27;20023;-65
2021/06/30 03:36:17;;;;;;;14.65;5.20;;;26.40;70.80;;;;;;5136014;27;20024;-65
2021/06/30 03:38:43;;;;;;;14.52;4.82;;;26.40;70.80;;;;;;5136014;27;20054;-64
2021/06/30 03:41:08;;;;;;;14.85;4.88;;;26.40;71.10;;;;;;5135952;27;20379;-64
2021/06/30 03:43:34;;;;;;;19.05;5.18;;;26.40;70.70;;;;;;5135518;27;20023;-64
2021/06/30 03:46:00;;;;;;;14.95;4.57;;;26.40;70.40;;;;;;5135494;27;20094;-65
2021/06/30 03:48:25;;;;;;;14.00;5.15;;;26.30;70.60;;;;;;5135566;27;20039;-63
2021/06/30 03:50:51;;;;;;;15.88;5.32;;;26.30;71.00;;;;;;5135483;27;20020;-64
2021/06/30 03:53:17;;;;;;;17.10;4.88;;;26.30;71.40;;;;;;5135705;27;20019;-65
2021/06/30 03:55:43;;;;;;;17.38;4.90;;;26.30;71.50;;;;;;5135438;27;20020;-64
2021/06/30 03:58:08;;;;;;;20.45;5.43;;;26.30;71.50;;;;;;5135309;27;20030;-67
2021/06/30 04:00:34;;;;;;;17.52;5.10;;;26.30;71.20;;;;;;5135729;27;20023;-64
2021/06/30 04:03:00;;;;;;;17.60;5.03;;;26.30;71.00;;;;;;5136263;27;20131;-63
2021/06/30 04:05:26;;;;;;;18.77;5.43;;;26.30;71.10;;;;;;5135371;27;20015;-64
2021/06/30 04:07:51;;;;;;;19.50;5.07;;;26.40;71.10;;;;;;5135032;27;20027;-62
2021/06/30 04:10:17;;;;;;;17.25;5.00;;;26.50;71.10;;;;;;5134300;27;20030;-63
2021/06/30 04:12:43;;;;;;;17.00;5.15;;;26.40;70.70;;;;;;5135273;27;20019;-63
2021/06/30 04:15:10;;;;;;;17.92;4.93;;;26.40;70.50;;;;;;5135615;27;20027;-64
2021/06/30 04:17:36;;;;;;;18.50;5.55;;;26.40;71.00;;;;;;5135018;27;20051;-68
2021/06/30 04:20:08;;;;;;;12.90;4.95;;;26.40;71.10;;;;;;5134158;27;20034;-65
2021/06/30 04:22:35;;;;;;;17.02;5.22;;;26.40;71.10;;;;;;5135148;27;20034;-65
2021/06/30 04:25:01;;;;;;;18.05;4.97;;;26.40;71.30;;;;;;5135503;27;20094;-64
2021/06/30 04:27:27;;;;;;;20.58;5.38;;;26.50;71.30;;;;;;5134756;27;20041;-63
2021/06/30 04:29:53;;;;;;;14.63;4.93;;;26.40;71.10;;;;;;5134938;27;20460;-64
2021/06/30 04:32:18;;;;;;;17.23;4.50;;;26.50;70.50;;;;;;5134721;27;20042;-68
2021/06/30 04:34:44;;;;;;;17.73;4.90;;;26.50;70.20;;;;;;5135001;27;20023;-68
2021/06/30 04:37:10;;;;;;;11.90;4.18;;;26.50;70.00;;;;;;5134661;27;20081;-67
2021/06/30 04:39:35;;;;;;;14.10;5.10;;;26.50;70.10;;;;;;5134374;27;20023;-64
2021/06/30 04:42:01;;;;;;;20.67;5.82;;;26.40;70.00;;;;;;5134578;27;20027;-63
2021/06/30 04:44:27;;;;;;;13.05;4.40;;;26.40;69.80;;;;;;5134757;27;20023;-64
2021/06/30 04:46:53;;;;;;;15.43;5.00;;;26.40;70.00;;;;;;5134626;27;20476;-63
2021/06/30 04:49:18;;;;;;;15.63;5.32;;;26.50;70.00;;;;;;5134335;27;20043;-63
2021/06/30 04:51:45;;;;;;;20.42;5.65;;;26.50;69.70;;;;;;5134509;27;20020;-66
2021/06/30 04:54:11;;;;;;;14.88;5.10;;;26.50;69.60;;;;;;5134599;27;20043;-66
2021/06/30 04:56:41;;;;;;;18.80;5.28;;;26.60;69.70;;;;;;5134209;27;20110;-68
2021/06/30 04:59:07;;;;;;;12.38;4.30;;;26.60;69.70;;;;;;5134684;27;20062;-68
2021/06/30 05:01:34;;;;;;;17.00;5.50;;;26.70;69.80;;;;;;5134160;27;20097;-66
2021/06/30 05:03:59;;;;;;;19.83;5.68;;;26.80;69.70;;;;;;5134429;27;20023;-65
2021/06/30 05:06:25;;;;;;;18.77;5.63;;;26.90;69.10;;;;;;5134534;27;20019;-67
2021/06/30 05:08:51;;;;;;;19.55;5.80;;;26.90;68.90;;;;;;5133957;27;20031;-68
2021/06/30 05:11:17;;;;;;;16.73;5.25;;;27.00;68.70;;;;;;5134273;27;20023;-65
2021/06/30 05:13:42;;;;;;;24.95;5.25;;;27.20;68.50;;;;;;5133998;27;20075;-66
2021/06/30 05:16:08;;;;;;;18.00;5.78;;;27.30;68.20;;;;;;5134036;27;20023;-68
2021/06/30 05:18:34;;;;;;;15.88;5.53;;;27.40;67.80;;;;;;5134227;27;20043;-63
2021/06/30 05:21:00;;;;;;;19.60;5.82;;;27.50;67.50;;;;;;5134036;28;20023;-64
2021/06/30 05:23:25;;;;;;;20.73;6.10;;;27.70;67.00;;;;;;5134272;27;20027;-66
2021/06/30 05:25:51;;;;;;;16.75;5.65;;;28.00;66.20;;;;;;5133797;28;20094;-65
2021/06/30 05:28:17;;;;;;;15.00;5.30;;;28.20;65.10;;;;;;5134102;28;20079;-64
2021/06/30 05:30:43;;;;;;;20.48;5.78;;;28.40;64.70;;;;;;5134605;28;20023;-65
2021/06/30 05:33:09;;;;;;;19.70;4.78;;;28.80;63.50;;;;;;5134123;28;20444;-66
2021/06/30 05:35:35;;;;;;;23.02;5.78;;;28.90;62.30;;;;;;5127047;28;20507;-66
2021/06/30 05:38:00;;;;;;;20.92;5.90;;;29.20;62.00;;;;;;5115524;28;20035;-65
2021/06/30 05:40:26;;;;;;;18.05;5.28;;;29.40;61.10;;;;;;5116490;28;20036;-66
2021/06/30 05:42:54;;;;;;;19.80;5.35;;;29.40;61.30;;;;;;5117804;28;20024;-66
2021/06/30 05:45:20;;;;;;;17.33;5.55;;;29.60;60.70;;;;;;5113392;28;20068;-71
2021/06/30 05:47:47;;;;;;;19.80;5.78;;;29.70;60.00;;;;;;5115846;28;20055;-70
2021/06/30 05:50:14;;;;;;;25.75;6.07;;;30.00;59.60;;;;;;5132418;28;20488;-74
2021/06/30 05:52:40;;;;;;;18.92;6.10;;;30.10;59.70;;;;;;5127619;28;20194;-71
2021/06/30 05:55:07;;;;;;;18.73;5.57;;;30.20;59.10;;;;;;5122046;28;20027;-73
2021/06/30 05:57:34;;;;;;;20.60;5.57;;;30.30;59.00;;;;;;5113343;28;20031;-71
2021/06/30 05:59:59;;;;;;;21.15;6.20;;;30.40;58.90;;;;;;5113341;28;20012;-72
2021/06/30 06:02:25;;;;;;;20.48;5.82;;;30.40;58.70;;;;;;5116103;28;20077;-71
2021/06/30 06:04:51;;;;;;;18.83;5.13;;;30.20;58.70;;;;;;5116937;28;20129;-72
2021/06/30 06:07:17;;;;;;;14.77;5.68;;;30.30;58.80;;;;;;5116833;28;20110;-73
2021/06/30 06:09:42;;;;;;;14.60;4.85;;;30.50;58.40;;;;;;5115146;28;20035;-72
2021/06/30 06:12:08;;;;;;;17.25;5.10;;;30.40;58.20;;;;;;5116534;28;20023;-74
2021/06/30 06:14:34;;;;;;;21.63;5.93;;;30.10;58.50;;;;;;5128358;27;20086;-74
2021/06/30 06:16:59;;;;;;;19.35;6.03;;;29.70;59.30;;;;;;5136811;27;20027;-75
2021/06/30 06:19:26;;;;;;;22.13;6.00;;;29.60;59.50;;;;;;5133481;27;20039;-74
2021/06/30 06:21:51;;;;;;;21.92;5.75;;;29.70;59.70;;;;;;5136551;27;20023;-74
2021/06/30 06:24:18;;;;;;;20.83;5.45;;;29.70;59.60;;;;;;5136689;27;20083;-73
2021/06/30 06:26:44;;;;;;;17.70;6.32;;;29.60;59.50;;;;;;5133778;27;20099;-75
2021/06/30 06:29:10;;;;;;;24.13;6.32;;;29.50;60.20;;;;;;5130560;27;20122;-74
2021/06/30 06:31:36;;;;;;;21.88;6.35;;;29.30;60.50;;;;;;5136664;27;20099;-74
2021/06/30 06:34:01;;;;;;;19.92;5.88;;;29.30;60.90;;;;;;5134737;27;20426;-73
2021/06/30 06:36:27;;;;;;;20.00;6.68;;;29.20;60.90;;;;;;5136393;27;20034;-74
2021/06/30 06:38:53;;;;;;;22.05;6.35;;;29.50;60.20;;;;;;5136474;27;20395;-74
2021/06/30 06:41:19;;;;;;;26.90;7.13;;;29.90;59.60;;;;;;5134983;27;20467;-75
2021/06/30 06:43:45;;;;;;;27.15;6.00;;;30.20;58.60;;;;;;5136630;27;20027;-74
2021/06/30 06:46:11;;;;;;;21.80;5.45;;;30.40;58.20;;;;;;5136128;27;20019;-74
2021/06/30 06:48:37;;;;;;;19.40;5.82;;;30.80;57.20;;;;;;5126205;27;20043;-74
2021/06/30 06:51:03;;;;;;;58.90;8.38;;;31.00;57.10;;;;;;5123640;27;20080;-74
2021/06/30 06:53:29;;;;;;;94.38;9.88;;;31.40;56.50;;;;;;5116475;27;20040;-75
2021/06/30 06:55:56;;;;;;;32.17;6.57;;;31.50;55.90;;;;;;5115600;28;20027;-73
2021/06/30 06:58:22;;;;;;;52.42;7.10;;;31.70;55.10;;;;;;5115086;28;20078;-76
2021/06/30 07:00:48;;;;;;;100.00;10.13;;;31.80;54.40;;;;;;5115270;28;20032;-74
2021/06/30 07:03:14;;;;;;;41.58;6.45;;;32.00;54.60;;;;;;5113911;28;20092;-75
2021/06/30 07:05:40;;;;;;;151.32;12.77;;;31.80;54.40;;;;;;5115253;28;20020;-75
2021/06/30 07:08:06;;;;;;;105.88;11.18;;;31.50;54.60;;;;;;5115048;28;20032;-74
2021/06/30 07:10:32;;;;;;;60.92;7.57;;;31.30;55.10;;;;;;5115075;28;20028;-75
2021/06/30 07:12:57;;;;;;;33.38;5.90;;;31.40;55.10;;;;;;5114742;28;20016;-75
2021/06/30 07:15:23;;;;;;;16.88;5.38;;;31.20;55.20;;;;;;5115299;28;20072;-74
2021/06/30 07:17:49;;;;;;;44.45;6.22;;;31.10;55.50;;;;;;5114614;28;20048;-74
2021/06/30 07:20:14;;;;;;;27.27;5.78;;;31.00;55.60;;;;;;5114882;28;20035;-74
2021/06/30 07:22:40;;;;;;;27.60;5.80;;;30.80;55.60;;;;;;5115335;28;20031;-74
2021/06/30 07:25:06;;;;;;;23.45;6.15;;;30.90;55.90;;;;;;5113646;28;20089;-75
2021/06/30 07:27:32;;;;;;;21.40;5.15;;;31.10;55.70;;;;;;5115013;28;20103;-73
2021/06/30 07:29:58;;;;;;;24.98;7.63;;;31.40;55.50;;;;;;5115051;28;20126;-74
2021/06/30 07:32:24;;;;;;;20.98;6.25;;;31.60;55.00;;;;;;5114861;28;20440;-74
2021/06/30 07:34:49;;;;;;;65.72;8.27;;;31.90;54.60;;;;;;5115080;28;20032;-74
2021/06/30 07:37:15;;;;;;;25.10;6.55;;;32.10;54.20;;;;;;5114829;28;20492;-75
2021/06/30 07:39:41;;;;;;;27.60;6.43;;;32.20;53.90;;;;;;5114863;27;20020;-77
2021/06/30 07:42:07;;;;;;;25.23;6.20;;;32.30;53.40;;;;;;5115088;28;20024;-74
2021/06/30 07:44:32;;;;;;;18.95;5.13;;;32.20;53.00;;;;;;5114756;28;20024;-77
2021/06/30 07:46:58;;;;;;;33.25;7.22;;;32.40;52.90;;;;;;5114734;28;20498;-76
2021/06/30 07:49:24;;;;;;;23.60;7.18;;;32.40;52.80;;;;;;5114448;28;20396;-77
2021/06/30 07:51:50;;;;;;;27.60;7.30;;;32.40;52.80;;;;;;5113250;28;20024;-74
2021/06/30 07:54:17;;;;;;;24.45;6.70;;;32.40;53.20;;;;;;5114450;28;20028;-74
2021/06/30 07:56:43;;;;;;;24.85;5.85;;;32.40;54.20;;;;;;5114562;28;20024;-76
2021/06/30 07:59:12;;;;;;;28.77;6.95;;;32.30;53.60;;;;;;5114502;28;20468;-78
2021/06/30 08:01:40;;;;;;;16.08;5.57;;;32.30;53.80;;;;;;5114653;28;20364;-76
2021/06/30 08:04:07;;;;;;;18.17;5.43;;;32.30;54.00;;;;;;5114398;28;20038;-75
2021/06/30 08:06:33;;;;;;;18.95;6.30;;;32.30;53.50;;;;;;5114244;28;20076;-76
2021/06/30 08:08:59;;;;;;;18.83;5.38;;;32.20;53.50;;;;;;5114870;28;20036;-78
2021/06/30 08:11:25;;;;;;;23.05;5.95;;;32.20;53.10;;;;;;5115318;28;20095;-75
2021/06/30 08:13:52;;;;;;;21.23;4.85;;;32.20;52.80;;;;;;5114285;27;20380;-76
2021/06/30 08:16:19;;;;;;;22.48;4.70;;;32.20;53.00;;;;;;5114221;28;20065;-76
2021/06/30 08:18:45;;;;;;;21.98;5.88;;;32.10;53.10;;;;;;5114205;28;20054;-76
2021/06/30 08:21:10;;;;;;;17.33;5.32;;;32.10;53.10;;;;;;5120137;28;20015;-80
2021/06/30 08:23:36;;;;;;;21.05;4.85;;;32.10;53.10;;;;;;5132882;28;20050;-76
2021/06/30 08:26:02;;;;;;;23.02;5.55;;;32.00;53.00;;;;;;5130677;28;20081;-78
2021/06/30 08:28:28;;;;;;;17.65;5.18;;;32.00;52.90;;;;;;5126423;28;20566;-78
2021/06/30 08:30:55;;;;;;;21.35;6.05;;;31.90;53.10;;;;;;5115802;28;20027;-75
2021/06/30 08:33:20;;;;;;;25.33;6.55;;;31.80;53.20;;;;;;5114232;28;20106;-75
2021/06/30 08:35:46;;;;;;;23.15;5.35;;;31.80;53.40;;;;;;5114854;28;20066;-76
2021/06/30 08:38:12;;;;;;;27.67;5.88;;;31.80;53.60;;;;;;5113625;28;20020;-74
2021/06/30 08:40:38;;;;;;;21.10;5.03;;;31.70;54.20;;;;;;5113679;28;20023;-78
2021/06/30 08:43:06;;;;;;;21.45;5.22;;;31.60;53.60;;;;;;5113544;28;20047;-77
2021/06/30 08:45:31;;;;;;;20.50;4.97;;;31.50;54.00;;;;;;5113207;28;20030;-74
2021/06/30 08:47:58;;;;;;;20.20;5.38;;;31.50;54.10;;;;;;5113233;28;20373;-75
2021/06/30 08:50:25;;;;;;;23.95;4.88;;;31.50;54.30;;;;;;5113493;28;20027;-76
2021/06/30 08:52:51;;;;;;;19.00;4.85;;;31.50;54.30;;;;;;5113268;28;20182;-75
2021/06/30 08:55:17;;;;;;;22.90;5.63;;;31.50;54.30;;;;;;5113537;28;20028;-77
2021/06/30 08:57:48;;;;;;;18.17;6.43;;;31.50;54.30;;;;;;5113093;28;20024;-77
2021/06/30 09:00:15;;;;;;;19.75;5.07;;;31.40;54.60;;;;;;5113561;28;20095;-74
2021/06/30 09:02:46;;;;;;;15.52;4.28;;;31.40;54.80;;;;;;5113554;28;20110;-77
2021/06/30 09:07:51;;;;;;;25.35;4.13;;;31.30;54.20;;;;;;5113252;28;20058;-76
2021/06/30 09:10:38;;;;;;;22.70;4.38;;;31.30;54.00;;;;;;5113587;28;20035;-76
2021/06/30 09:13:07;;;;;;;12.60;4.45;;;31.20;53.80;;;;;;5113134;28;20115;-76
2021/06/30 09:15:34;;;;;;;18.60;4.22;;;31.20;54.10;;;;;;5113214;28;20467;-73
2021/06/30 09:18:26;;;;;;;24.30;4.82;;;31.20;53.90;;;;;;5113243;28;20087;-74
2021/06/30 09:21:14;;;;;;;17.83;4.40;;;31.20;52.20;;;;;;5113333;28;20055;-74
2021/06/30 09:24:08;;;;;;;59.03;5.97;;;31.20;53.70;;;;;;5105406;27;20396;-78
2021/06/30 09:26:46;;;;;;;32.85;4.43;;;31.20;51.70;;;;;;5113259;28;20035;-75
2021/06/30 09:29:13;;;;;;;32.08;5.45;;;31.30;52.70;;;;;;5112742;28;20032;-74
2021/06/30 09:31:44;;;;;;;45.42;6.40;;;31.30;52.30;;;;;;5111467;28;20020;-73
2021/06/30 09:34:10;;;;;;;37.83;5.07;;;31.30;52.20;;;;;;5113125;28;20411;-75
2021/06/30 09:36:50;;;;;;;26.48;5.30;;;31.30;52.10;;;;;;5117205;28;20015;-75
2021/06/30 09:39:16;;;;;;;21.75;4.38;;;31.30;51.80;;;;;;5117089;28;20448;-76
2021/06/30 09:41:44;;;;;;;36.25;4.82;;;31.30;51.50;;;;;;5117259;28;20043;-75
2021/06/30 09:44:17;;;;;;;40.72;4.97;;;31.30;52.00;;;;;;5117146;28;20077;-75
2021/06/30 09:46:45;;;;;;;28.70;4.35;;;31.30;51.30;;;;;;5116813;28;20107;-77
2021/06/30 09:49:18;;;;;;;39.85;5.35;;;31.30;50.20;;;;;;5117101;28;20035;-75
2021/06/30 09:51:46;;;;;;;17.43;4.10;;;31.30;51.40;;;;;;5117125;28;20015;-75
2021/06/30 09:54:17;;;;;;;19.38;3.63;;;31.20;50.90;;;;;;5117056;27;20070;-74
2021/06/30 09:57:01;;;;;;;16.10;3.40;;;31.20;50.10;;;;;;5117009;27;20073;-74
2021/06/30 09:59:28;;;;;;;;;;;31.20;49.70;;;;;;5117544;28;20116;-74
2021/06/30 10:01:58;;;;;;;18.25;3.47;;;31.20;50.50;;;;;;5117078;28;19904;-76
2021/06/30 10:04:31;;;;;;;14.18;3.28;;;31.10;50.10;;;;;;5117042;28;20049;-75
2021/06/30 10:06:59;;;;;;;27.73;3.67;;;31.10;50.20;;;;;;5116345;28;20111;-73
2021/06/30 10:09:26;;;;;;;19.92;4.53;;;31.20;51.60;;;;;;5116467;27;20039;-75
2021/06/30 10:11:56;;;;;;;17.23;4.22;;;31.30;51.70;;;;;;5116418;28;20111;-77
2021/06/30 10:14:24;;;;;;;31.30;4.53;;;31.30;51.90;;;;;;5116721;28;20047;-75
2021/06/30 10:16:50;;;;;;;20.77;4.18;;;31.30;52.40;;;;;;5116549;28;20028;-76
2021/06/30 10:19:18;;;;;;;20.50;4.35;;;31.30;52.30;;;;;;5116467;28;20050;-74
2021/06/30 10:21:43;;;;;;;20.85;4.63;;;31.30;52.70;;;;;;5116559;28;20028;-76
2021/06/30 10:24:10;;;;;;;28.63;4.25;;;31.30;52.70;;;;;;5116402;28;20080;-74
2021/06/30 10:26:35;;;;;;;19.23;4.28;;;31.40;52.80;;;;;;5116301;28;20197;-74
2021/06/30 10:29:02;;;;;;;14.68;3.80;;;31.40;53.10;;;;;;5116057;28;20091;-77
2021/06/30 10:31:35;;;;;;;25.17;4.70;;;31.40;53.20;;;;;;5116614;28;20024;-75
2021/06/30 10:34:04;;;;;;;19.05;4.38;;;31.30;53.70;;;;;;5116559;28;20448;-76
2021/06/30 10:36:48;;;;;;;18.98;4.13;;;31.40;54.10;;;;;;5115937;28;20031;-75
2021/06/30 10:39:17;;;;;;;29.75;4.93;;;31.30;53.80;;;;;;5116376;28;20103;-77
2021/06/30 10:41:54;;;;;;;9.10;2.75;;;31.30;53.80;;;;;;5116209;28;20110;-76
2021/06/30 10:44:24;;;;;;;15.88;3.67;;;31.30;52.60;;;;;;5116470;28;20023;-74
2021/06/30 10:46:53;;;;;;;13.20;3.08;;;31.40;53.50;;;;;;5115577;28;20024;-76
2021/06/30 10:49:30;;;;;;;15.07;3.25;;;31.30;53.20;;;;;;5116529;28;20035;-74
2021/06/30 10:52:03;;;;;;;8.70;2.85;;;31.30;51.30;;;;;;5115557;28;20051;-76
2021/06/30 10:54:31;;;;;;;33.33;3.72;;;31.40;51.20;;;;;;5116527;28;20027;-76
2021/06/30 10:57:33;;;;;;;17.77;3.60;;;31.40;52.00;;;;;;5115777;28;20055;-75
2021/06/30 11:00:00;;;;;;;21.70;4.40;;;31.40;52.40;;;;;;5072645;28;20024;-79
2021/06/30 11:02:31;;;;;;;144.95;18.70;;;31.50;52.70;;;;;;5107266;28;20036;-76
2021/06/30 11:05:17;;;;;;;37.25;6.18;;;31.60;52.70;;;;;;5115588;28;20032;-73
2021/06/30 11:07:44;;;;;;;130.57;14.30;;;31.70;52.50;;;;;;5115009;28;20074;-76
2021/06/30 11:10:16;;;;;;;15.15;3.40;;;31.70;51.70;;;;;;5116408;28;20386;-75
2021/06/30 11:12:51;;;;;;;13.27;2.90;;;31.60;51.20;;;;;;5116939;28;20537;-75
2021/06/30 11:15:35;;;;;;;159.98;16.90;;;31.70;51.30;;;;;;5114866;28;20530;-76
2021/06/30 11:18:24;;;;;;;28.50;4.90;;;31.70;51.00;;;;;;5114716;28;20043;-77
2021/06/30 11:20:52;;;;;;;14.95;3.72;;;31.70;49.70;;;;;;5109643;28;20108;-77
2021/06/30 11:23:18;;;;;;;29.90;4.40;;;31.80;50.80;;;;;;5113817;28;20067;-76
2021/06/30 11:25:45;;;;;;;14.52;4.07;;;31.80;50.80;;;;;;5115398;28;20360;-75
2021/06/30 11:28:31;;;;;;;28.50;4.80;;;31.90;50.30;;;;;;5113606;28;20019;-76
2021/06/30 11:30:57;;;;;;;15.55;7.55;;;31.90;49.30;;;;;;5114984;28;20168;-77
2021/06/30 11:33:23;;;;;;;18.38;4.55;;;31.80;48.60;;;;;;5115349;28;20479;-76
2021/06/30 11:35:49;;;;;;;6.50;2.60;;;31.90;47.90;;;;;;5114884;27;20020;-76
2021/06/30 11:38:21;;;;;;;9.27;3.17;;;31.90;47.50;;;;;;5115125;28;20024;-76
2021/06/30 11:41:02;;;;;;;11.10;3.45;;;31.90;47.30;;;;;;5114636;28;20127;-77
2021/06/30 11:43:40;;;;;;;8.40;2.55;;;31.90;48.10;;;;;;5115115;27;20098;-77
2021/06/30 11:46:06;;;;;;;15.25;2.38;;;32.00;48.30;;;;;;5114816;28;20020;-74
2021/06/30 11:48:35;;;;;;;11.23;2.45;;;32.00;47.60;;;;;;5115324;28;20020;-78
2021/06/30 11:51:04;;;;;;;6.47;2.08;;;32.10;47.90;;;;;;5115110;28;20028;-74
2021/06/30 11:53:36;;;;;;;6.53;2.22;;;32.10;47.40;;;;;;5113423;28;20076;-75
2021/06/30 11:56:03;;;;;;;10.65;2.30;;;32.20;48.00;;;;;;5114766;28;20365;-77
2021/06/30 11:58:46;;;;;;;9.52;3.67;;;32.20;48.10;;;;;;5113641;28;20088;-75
2021/06/30 12:01:23;;;;;;;8.23;3.15;;;32.20;47.50;;;;;;5114857;28;20044;-77
2021/06/30 12:04:05;;;;;;;8.73;2.20;;;32.10;47.40;;;;;;5114506;28;20028;-75
2021/06/30 12:06:33;;;;;;;11.18;2.88;;;32.10;47.60;;;;;;5114155;28;20064;-75
2021/06/30 12:09:19;;;;;;;8.90;2.72;;;32.10;47.60;;;;;;5114218;28;20035;-76
2021/06/30 12:11:51;;;;;;;7.00;2.00;;;32.20;46.80;;;;;;5114241;28;20030;-74
2021/06/30 12:14:37;;;;;;;8.50;2.40;;;32.10;46.30;;;;;;5114319;28;20384;-75
2021/06/30 12:17:04;;;;;;;7.43;2.75;;;32.10;46.60;;;;;;5114148;28;20476;-76
2021/06/30 12:19:36;;;;;;;8.15;3.03;;;32.20;47.10;;;;;;5114214;28;20048;-75
2021/06/30 12:22:16;;;;;;;7.70;2.67;;;32.20;46.60;;;;;;5114148;28;20030;-76
2021/06/30 12:24:41;;;;;;;8.75;2.08;;;32.20;47.60;;;;;;5113928;28;20032;-75
2021/06/30 12:27:09;;;;;;;9.25;2.05;;;32.20;47.10;;;;;;5113779;28;20361;-75
2021/06/30 12:29:37;;;;;;;7.53;2.28;;;32.30;46.90;;;;;;5114440;28;20081;-74
2021/06/30 12:32:14;;;;;;;8.75;2.47;;;32.40;46.10;;;;;;5114458;28;20027;-77
2021/06/30 12:34:42;;;;;;;6.65;2.22;;;32.40;45.10;;;;;;5114371;28;20054;-75
2021/06/30 12:37:09;;;;;;;10.52;2.60;;;32.20;44.30;;;;;;5113820;28;20027;-75
2021/06/30 12:39:36;;;;;;;10.77;2.63;;;32.20;44.40;;;;;;5114145;28;20016;-75
2021/06/30 12:42:07;;;;;;;12.88;2.50;;;32.20;44.50;;;;;;5113962;28;20038;-75
2021/06/30 12:44:51;;;;;;;9.57;2.25;;;32.10;44.30;;;;;;5114228;28;20429;-74